sensor_id;sensor_type;location;lat;lon;timestamp;temperature;humidity
41630;DHT22;27322;49.488;8.480;2023-04-23T00:02:15;14.50;99.90
41630;DHT22;27322;49.488;8.480;2023-04-23T00:04:50;14.50;99.90
41630;DHT22;27322;49.488;8.480;2023-04-23T00:07:19;14.50;99.90
41630;DHT22;27322;49.488;8.480;2023-04-23T00:09:46;14.50;99.90
41630;DHT22;27322;49.488;8.480;2023-04-23T00:12:14;14.50;99.90
41630;DHT22;27322;49.488;8.480;2023-04-23T00:14:40;14.40;99.90
41630;DHT22;27322;49.488;8.480;2023-04-23T00:17:05;14.40;99.90
41630;DHT22;27322;49.488;8.480;2023-04-23T00:19:31;14.40;99.90
41630;DHT22;27322;49.488;8.480;2023-04-23T00:21:56;14.40;99.90
41630;DHT22;27322;49.488;8.480;2023-04-23T00:24:22;14.40;99.90
41630;DHT22;27322;49.488;8.480;2023-04-23T00:26:48;14.40;99.90
41630;DHT22;27322;49.488;8.480;2023-04-23T00:29:13;14.30;99.90
41630;DHT22;27322;49.488;8.480;2023-04-23T00:31:39;14.30;99.90
41630;DHT22;27322;49.488;8.480;2023-04-23T00:34:04;14.30;99.90
41630;DHT22;27322;49.488;8.480;2023-04-23T00:36:30;14.30;99.90
41630;DHT22;27322;49.488;8.480;2023-04-23T00:38:56;14.30;99.90
41630;DHT22;27322;49.488;8.480;2023-04-23T00:41:22;14.30;99.90
41630;DHT22;27322;49.488;8.480;2023-04-23T00:43:48;14.30;99.90
41630;DHT22;27322;49.488;8.480;2023-04-23T00:46:17;14.20;99.90
41630;DHT22;27322;49.488;8.480;2023-04-23T00:48:44;14.30;99.90
41630;DHT22;27322;49.488;8.480;2023-04-23T00:51:10;14.30;99.90
41630;DHT22;27322;49.488;8.480;2023-04-23T00:53:36;14.30;99.90
41630;DHT22;27322;49.488;8.480;2023-04-23T00:56:03;14.20;99.90
41630;DHT22;27322;49.488;8.480;2023-04-23T00:58:30;14.20;99.90
41630;DHT22;27322;49.488;8.480;2023-04-23T01:00:56;14.20;99.90
41630;DHT22;27322;49.488;8.480;2023-04-23T01:03:22;14.20;99.90
41630;DHT22;27322;49.488;8.480;2023-04-23T01:05:50;14.20;99.90
41630;DHT22;27322;49.488;8.480;2023-04-23T01:08:17;14.20;99.90
41630;DHT22;27322;49.488;8.480;2023-04-23T01:10:44;14.20;99.90
41630;DHT22;27322;49.488;8.480;2023-04-23T01:13:11;14.20;99.90
41630;DHT22;27322;49.488;8.480;2023-04-23T01:15:37;14.20;99.90
41630;DHT22;27322;49.488;8.480;2023-04-23T01:18:02;14.20;99.90
41630;DHT22;27322;49.488;8.480;2023-04-23T01:20:29;14.10;99.90
41630;DHT22;27322;49.488;8.480;2023-04-23T01:22:54;14.10;99.90
41630;DHT22;27322;49.488;8.480;2023-04-23T01:25:20;14.10;99.90
41630;DHT22;27322;49.488;8.480;2023-04-23T01:27:47;14.10;99.90
41630;DHT22;27322;49.488;8.480;2023-04-23T01:30:13;14.10;99.90
41630;DHT22;27322;49.488;8.480;2023-04-23T01:32:39;14.10;99.90
41630;DHT22;27322;49.488;8.480;2023-04-23T01:35:05;14.10;99.90
41630;DHT22;27322;49.488;8.480;2023-04-23T01:37:31;14.10;99.90
41630;DHT22;27322;49.488;8.480;2023-04-23T01:39:58;14.10;99.90
41630;DHT22;27322;49.488;8.480;2023-04-23T01:42:24;14.10;99.90
41630;DHT22;27322;49.488;8.480;2023-04-23T01:44:49;14.10;99.90
41630;DHT22;27322;49.488;8.480;2023-04-23T01:47:15;14.10;99.90
41630;DHT22;27322;49.488;8.480;2023-04-23T01:49:41;14.10;99.90
41630;DHT22;27322;49.488;8.480;2023-04-23T01:52:07;14.10;99.90
41630;DHT22;27322;49.488;8.480;2023-04-23T01:54:32;14.00;99.90
41630;DHT22;27322;49.488;8.480;2023-04-23T01:56:58;14.10;99.90
41630;DHT22;27322;49.488;8.480;2023-04-23T01:59:24;14.00;99.90
41630;DHT22;27322;49.488;8.480;2023-04-23T02:01:50;14.00;99.90
41630;DHT22;27322;49.488;8.480;2023-04-23T02:04:17;14.00;99.90
41630;DHT22;27322;49.488;8.480;2023-04-23T02:06:44;14.00;99.90
41630;DHT22;27322;49.488;8.480;2023-04-23T02:09:11;14.00;99.90
41630;DHT22;27322;49.488;8.480;2023-04-23T02:11:37;14.00;99.90
41630;DHT22;27322;49.488;8.480;2023-04-23T02:14:03;14.00;99.90
41630;DHT22;27322;49.488;8.480;2023-04-23T02:16:30;14.00;99.90
41630;DHT22;27322;49.488;8.480;2023-04-23T02:18:55;14.00;99.90
41630;DHT22;27322;49.488;8.480;2023-04-23T02:21:24;14.00;99.90
41630;DHT22;27322;49.488;8.480;2023-04-23T02:23:51;14.00;99.90
41630;DHT22;27322;49.488;8.480;2023-04-23T02:26:17;14.00;99.90
41630;DHT22;27322;49.488;8.480;2023-04-23T02:28:43;14.00;99.90
41630;DHT22;27322;49.488;8.480;2023-04-23T02:31:09;14.00;99.90
41630;DHT22;27322;49.488;8.480;2023-04-23T02:33:35;14.00;99.90
41630;DHT22;27322;49.488;8.480;2023-04-23T02:36:00;14.00;99.90
41630;DHT22;27322;49.488;8.480;2023-04-23T02:38:26;14.00;99.90
41630;DHT22;27322;49.488;8.480;2023-04-23T02:40:51;13.90;99.90
41630;DHT22;27322;49.488;8.480;2023-04-23T02:43:17;13.90;99.90
41630;DHT22;27322;49.488;8.480;2023-04-23T02:45:43;13.90;99.90
41630;DHT22;27322;49.488;8.480;2023-04-23T02:48:09;13.90;99.90
41630;DHT22;27322;49.488;8.480;2023-04-23T02:50:36;13.90;99.90
41630;DHT22;27322;49.488;8.480;2023-04-23T02:53:03;13.90;99.90
41630;DHT22;27322;49.488;8.480;2023-04-23T02:55:29;13.90;99.90
41630;DHT22;27322;49.488;8.480;2023-04-23T02:57:57;13.90;99.90
41630;DHT22;27322;49.488;8.480;2023-04-23T03:00:23;13.90;99.90
41630;DHT22;27322;49.488;8.480;2023-04-23T03:02:49;13.80;99.90
41630;DHT22;27322;49.488;8.480;2023-04-23T03:05:15;13.80;99.90
41630;DHT22;27322;49.488;8.480;2023-04-23T03:07:40;13.80;99.90
41630;DHT22;27322;49.488;8.480;2023-04-23T03:10:06;13.80;99.90
41630;DHT22;27322;49.488;8.480;2023-04-23T03:12:32;13.80;99.90
41630;DHT22;27322;49.488;8.480;2023-04-23T03:14:58;13.80;99.90
41630;DHT22;27322;49.488;8.480;2023-04-23T03:17:23;13.80;99.90
41630;DHT22;27322;49.488;8.480;2023-04-23T03:19:49;13.80;99.90
41630;DHT22;27322;49.488;8.480;2023-04-23T03:22:15;13.80;99.90
41630;DHT22;27322;49.488;8.480;2023-04-23T03:24:40;13.80;99.90
41630;DHT22;27322;49.488;8.480;2023-04-23T03:27:06;13.70;99.90
41630;DHT22;27322;49.488;8.480;2023-04-23T03:29:31;13.80;99.90
41630;DHT22;27322;49.488;8.480;2023-04-23T03:31:57;13.70;99.90
41630;DHT22;27322;49.488;8.480;2023-04-23T03:34:22;13.70;99.90
41630;DHT22;27322;49.488;8.480;2023-04-23T03:36:48;13.70;99.90
41630;DHT22;27322;49.488;8.480;2023-04-23T03:39:15;13.70;99.90
41630;DHT22;27322;49.488;8.480;2023-04-23T03:41:41;13.70;99.90
41630;DHT22;27322;49.488;8.480;2023-04-23T03:44:06;13.70;99.90
41630;DHT22;27322;49.488;8.480;2023-04-23T03:46:32;13.70;99.90
41630;DHT22;27322;49.488;8.480;2023-04-23T03:48:57;13.70;99.90
41630;DHT22;27322;49.488;8.480;2023-04-23T03:51:23;13.70;99.90
41630;DHT22;27322;49.488;8.480;2023-04-23T03:53:48;13.70;99.90
41630;DHT22;27322;49.488;8.480;2023-04-23T03:56:15;13.60;99.90
41630;DHT22;27322;49.488;8.480;2023-04-23T03:58:41;13.60;99.90
41630;DHT22;27322;49.488;8.480;2023-04-23T04:01:06;13.60;99.90
41630;DHT22;27322;49.488;8.480;2023-04-23T04:03:32;13.60;99.90
41630;DHT22;27322;49.488;8.480;2023-04-23T04:05:57;13.60;99.90
41630;DHT22;27322;49.488;8.480;2023-04-23T04:08:23;13.60;99.90
41630;DHT22;27322;49.488;8.480;2023-04-23T04:10:51;13.50;99.90
41630;DHT22;27322;49.488;8.480;2023-04-23T04:13:16;13.50;99.90
41630;DHT22;27322;49.488;8.480;2023-04-23T04:15:42;13.50;99.90
41630;DHT22;27322;49.488;8.480;2023-04-23T04:18:07;13.50;99.90
41630;DHT22;27322;49.488;8.480;2023-04-23T04:20:33;13.50;99.90
41630;DHT22;27322;49.488;8.480;2023-04-23T04:22:59;13.40;99.90
41630;DHT22;27322;49.488;8.480;2023-04-23T04:25:25;13.40;99.90
41630;DHT22;27322;49.488;8.480;2023-04-23T04:27:53;13.40;99.90
41630;DHT22;27322;49.488;8.480;2023-04-23T04:30:19;13.40;99.90
41630;DHT22;27322;49.488;8.480;2023-04-23T04:32:45;13.40;99.90
41630;DHT22;27322;49.488;8.480;2023-04-23T04:35:11;13.40;99.90
41630;DHT22;27322;49.488;8.480;2023-04-23T04:37:38;13.40;99.90
41630;DHT22;27322;49.488;8.480;2023-04-23T04:40:05;13.40;99.90
41630;DHT22;27322;49.488;8.480;2023-04-23T04:42:31;13.40;99.90
41630;DHT22;27322;49.488;8.480;2023-04-23T04:44:57;13.30;99.90
41630;DHT22;27322;49.488;8.480;2023-04-23T04:47:24;13.30;99.90
41630;DHT22;27322;49.488;8.480;2023-04-23T04:49:50;13.30;99.90
41630;DHT22;27322;49.488;8.480;2023-04-23T04:52:16;13.30;99.90
41630;DHT22;27322;49.488;8.480;2023-04-23T04:54:42;13.30;99.90
41630;DHT22;27322;49.488;8.480;2023-04-23T04:57:07;13.30;99.90
41630;DHT22;27322;49.488;8.480;2023-04-23T04:59:33;13.30;99.90
41630;DHT22;27322;49.488;8.480;2023-04-23T05:01:59;13.30;99.90
41630;DHT22;27322;49.488;8.480;2023-04-23T05:04:25;13.30;99.90
41630;DHT22;27322;49.488;8.480;2023-04-23T05:06:50;13.30;99.90
41630;DHT22;27322;49.488;8.480;2023-04-23T05:09:16;13.30;99.90
41630;DHT22;27322;49.488;8.480;2023-04-23T05:11:42;13.30;99.90
41630;DHT22;27322;49.488;8.480;2023-04-23T05:14:08;13.30;99.90
41630;DHT22;27322;49.488;8.480;2023-04-23T05:16:33;13.30;99.90
41630;DHT22;27322;49.488;8.480;2023-04-23T05:18:59;13.30;99.90
41630;DHT22;27322;49.488;8.480;2023-04-23T05:21:25;13.30;99.90
41630;DHT22;27322;49.488;8.480;2023-04-23T05:23:54;13.30;99.90
41630;DHT22;27322;49.488;8.480;2023-04-23T05:26:20;13.30;99.90
41630;DHT22;27322;49.488;8.480;2023-04-23T05:28:45;13.40;99.90
41630;DHT22;27322;49.488;8.480;2023-04-23T05:31:11;13.30;99.90
41630;DHT22;27322;49.488;8.480;2023-04-23T05:33:37;13.30;99.90
41630;DHT22;27322;49.488;8.480;2023-04-23T05:36:03;13.40;99.90
41630;DHT22;27322;49.488;8.480;2023-04-23T05:38:29;13.30;99.90
41630;DHT22;27322;49.488;8.480;2023-04-23T05:40:54;13.30;99.90
41630;DHT22;27322;49.488;8.480;2023-04-23T05:43:20;13.30;99.90
41630;DHT22;27322;49.488;8.480;2023-04-23T05:45:46;13.40;99.90
41630;DHT22;27322;49.488;8.480;2023-04-23T05:48:11;13.40;99.90
41630;DHT22;27322;49.488;8.480;2023-04-23T05:50:37;13.40;99.90
41630;DHT22;27322;49.488;8.480;2023-04-23T05:53:02;13.40;99.90
41630;DHT22;27322;49.488;8.480;2023-04-23T05:55:28;13.40;99.90
41630;DHT22;27322;49.488;8.480;2023-04-23T05:57:54;13.40;99.90
41630;DHT22;27322;49.488;8.480;2023-04-23T06:00:19;13.40;99.90
41630;DHT22;27322;49.488;8.480;2023-04-23T06:02:45;13.40;99.90
41630;DHT22;27322;49.488;8.480;2023-04-23T06:05:12;13.40;99.90
41630;DHT22;27322;49.488;8.480;2023-04-23T06:07:38;13.40;99.90
41630;DHT22;27322;49.488;8.480;2023-04-23T06:10:04;13.50;99.90
41630;DHT22;27322;49.488;8.480;2023-04-23T06:12:30;13.50;99.90
41630;DHT22;27322;49.488;8.480;2023-04-23T06:14:56;13.50;99.90
41630;DHT22;27322;49.488;8.480;2023-04-23T06:17:22;13.50;99.90
41630;DHT22;27322;49.488;8.480;2023-04-23T06:19:47;13.50;99.90
41630;DHT22;27322;49.488;8.480;2023-04-23T06:22:13;13.50;99.90
41630;DHT22;27322;49.488;8.480;2023-04-23T06:24:39;13.50;99.90
41630;DHT22;27322;49.488;8.480;2023-04-23T06:27:04;13.50;99.90
41630;DHT22;27322;49.488;8.480;2023-04-23T06:29:30;13.50;99.90
41630;DHT22;27322;49.488;8.480;2023-04-23T06:31:59;13.50;99.90
41630;DHT22;27322;49.488;8.480;2023-04-23T06:34:25;13.50;99.90
41630;DHT22;27322;49.488;8.480;2023-04-23T06:36:51;13.50;99.90
41630;DHT22;27322;49.488;8.480;2023-04-23T06:39:17;13.50;99.90
41630;DHT22;27322;49.488;8.480;2023-04-23T06:41:42;13.50;99.90
41630;DHT22;27322;49.488;8.480;2023-04-23T06:44:08;13.50;99.90
41630;DHT22;27322;49.488;8.480;2023-04-23T06:46:34;13.50;99.90
41630;DHT22;27322;49.488;8.480;2023-04-23T06:48:59;13.60;99.90
41630;DHT22;27322;49.488;8.480;2023-04-23T06:51:25;13.60;99.90
41630;DHT22;27322;49.488;8.480;2023-04-23T06:53:52;13.70;99.90
41630;DHT22;27322;49.488;8.480;2023-04-23T06:56:18;13.70;99.90
41630;DHT22;27322;49.488;8.480;2023-04-23T06:58:44;13.70;99.90
41630;DHT22;27322;49.488;8.480;2023-04-23T07:01:10;13.80;99.90
41630;DHT22;27322;49.488;8.480;2023-04-23T07:03:35;13.80;99.90
41630;DHT22;27322;49.488;8.480;2023-04-23T07:06:01;13.90;99.90
41630;DHT22;27322;49.488;8.480;2023-04-23T07:08:27;13.90;99.90
41630;DHT22;27322;49.488;8.480;2023-04-23T07:10:53;13.90;99.90
41630;DHT22;27322;49.488;8.480;2023-04-23T07:13:19;13.90;99.90
41630;DHT22;27322;49.488;8.480;2023-04-23T07:15:44;14.00;99.90
41630;DHT22;27322;49.488;8.480;2023-04-23T07:18:11;14.00;99.90
41630;DHT22;27322;49.488;8.480;2023-04-23T07:20:37;14.00;99.90
41630;DHT22;27322;49.488;8.480;2023-04-23T07:23:03;14.00;99.90
41630;DHT22;27322;49.488;8.480;2023-04-23T07:25:29;14.10;99.90
41630;DHT22;27322;49.488;8.480;2023-04-23T07:27:55;14.20;99.90
41630;DHT22;27322;49.488;8.480;2023-04-23T07:30:22;14.20;99.90
41630;DHT22;27322;49.488;8.480;2023-04-23T07:32:47;14.30;99.90
41630;DHT22;27322;49.488;8.480;2023-04-23T07:35:13;14.40;99.90
41630;DHT22;27322;49.488;8.480;2023-04-23T07:37:39;14.40;99.90
41630;DHT22;27322;49.488;8.480;2023-04-23T07:40:05;14.40;99.90
41630;DHT22;27322;49.488;8.480;2023-04-23T07:42:32;14.40;99.90
41630;DHT22;27322;49.488;8.480;2023-04-23T07:44:58;14.40;99.90
41630;DHT22;27322;49.488;8.480;2023-04-23T07:47:24;14.40;99.90
41630;DHT22;27322;49.488;8.480;2023-04-23T07:49:50;14.40;99.90
41630;DHT22;27322;49.488;8.480;2023-04-23T07:52:15;14.40;99.90
41630;DHT22;27322;49.488;8.480;2023-04-23T07:54:42;14.40;99.90
41630;DHT22;27322;49.488;8.480;2023-04-23T07:57:07;14.50;99.90
41630;DHT22;27322;49.488;8.480;2023-04-23T07:59:33;14.50;99.90
41630;DHT22;27322;49.488;8.480;2023-04-23T08:01:59;14.50;99.90
41630;DHT22;27322;49.488;8.480;2023-04-23T08:04:24;14.60;99.90
41630;DHT22;27322;49.488;8.480;2023-04-23T08:06:50;14.60;99.90
41630;DHT22;27322;49.488;8.480;2023-04-23T08:09:16;14.70;99.90
41630;DHT22;27322;49.488;8.480;2023-04-23T08:11:41;14.70;99.90
41630;DHT22;27322;49.488;8.480;2023-04-23T08:14:07;14.80;99.90
41630;DHT22;27322;49.488;8.480;2023-04-23T08:16:32;14.70;99.90
41630;DHT22;27322;49.488;8.480;2023-04-23T08:18:58;14.80;99.90
41630;DHT22;27322;49.488;8.480;2023-04-23T08:21:24;14.80;99.90
41630;DHT22;27322;49.488;8.480;2023-04-23T08:23:51;14.80;99.90
41630;DHT22;27322;49.488;8.480;2023-04-23T08:26:17;14.90;99.90
41630;DHT22;27322;49.488;8.480;2023-04-23T08:28:42;14.90;99.90
41630;DHT22;27322;49.488;8.480;2023-04-23T08:31:08;14.90;99.90
41630;DHT22;27322;49.488;8.480;2023-04-23T08:33:33;14.90;99.90
41630;DHT22;27322;49.488;8.480;2023-04-23T08:35:59;14.90;99.90
41630;DHT22;27322;49.488;8.480;2023-04-23T08:38:25;15.00;99.90
41630;DHT22;27322;49.488;8.480;2023-04-23T08:40:56;15.10;99.90
41630;DHT22;27322;49.488;8.480;2023-04-23T08:43:31;15.20;99.90
41630;DHT22;27322;49.488;8.480;2023-04-23T08:46:01;15.30;99.90
41630;DHT22;27322;49.488;8.480;2023-04-23T08:48:32;15.40;99.90
41630;DHT22;27322;49.488;8.480;2023-04-23T08:51:00;15.50;99.90
41630;DHT22;27322;49.488;8.480;2023-04-23T08:53:26;15.60;99.90
41630;DHT22;27322;49.488;8.480;2023-04-23T08:55:54;15.70;99.90
41630;DHT22;27322;49.488;8.480;2023-04-23T08:58:21;15.80;99.90
41630;DHT22;27322;49.488;8.480;2023-04-23T09:00:48;15.90;99.90
41630;DHT22;27322;49.488;8.480;2023-04-23T09:03:15;16.00;99.90
41630;DHT22;27322;49.488;8.480;2023-04-23T09:05:41;16.10;99.90
41630;DHT22;27322;49.488;8.480;2023-04-23T09:08:07;16.20;99.90
41630;DHT22;27322;49.488;8.480;2023-04-23T09:10:39;16.30;99.90
41630;DHT22;27322;49.488;8.480;2023-04-23T09:13:06;16.40;99.90
41630;DHT22;27322;49.488;8.480;2023-04-23T09:15:31;16.60;99.90
41630;DHT22;27322;49.488;8.480;2023-04-23T09:17:58;16.60;99.90
41630;DHT22;27322;49.488;8.480;2023-04-23T09:20:24;16.60;99.90
41630;DHT22;27322;49.488;8.480;2023-04-23T09:22:51;16.60;99.90
41630;DHT22;27322;49.488;8.480;2023-04-23T09:25:22;16.70;99.90
41630;DHT22;27322;49.488;8.480;2023-04-23T09:27:51;16.80;99.90
41630;DHT22;27322;49.488;8.480;2023-04-23T09:30:18;16.80;99.90
41630;DHT22;27322;49.488;8.480;2023-04-23T09:32:45;16.80;99.90
41630;DHT22;27322;49.488;8.480;2023-04-23T09:35:13;16.80;99.90
41630;DHT22;27322;49.488;8.480;2023-04-23T09:37:44;16.80;99.90
41630;DHT22;27322;49.488;8.480;2023-04-23T09:40:17;16.80;99.90
41630;DHT22;27322;49.488;8.480;2023-04-23T09:42:51;16.80;99.90
41630;DHT22;27322;49.488;8.480;2023-04-23T09:45:18;16.80;99.90
41630;DHT22;27322;49.488;8.480;2023-04-23T09:47:57;16.70;99.90
41630;DHT22;27322;49.488;8.480;2023-04-23T09:52:57;16.60;99.90
41630;DHT22;27322;49.488;8.480;2023-04-23T09:55:30;16.60;99.90
41630;DHT22;27322;49.488;8.480;2023-04-23T09:58:00;16.70;99.90
41630;DHT22;27322;49.488;8.480;2023-04-23T10:00:26;16.70;99.90
41630;DHT22;27322;49.488;8.480;2023-04-23T10:02:58;16.70;99.90
41630;DHT22;27322;49.488;8.480;2023-04-23T10:05:25;16.70;99.90
41630;DHT22;27322;49.488;8.480;2023-04-23T10:07:50;16.70;99.90
41630;DHT22;27322;49.488;8.480;2023-04-23T10:10:17;16.70;99.90
41630;DHT22;27322;49.488;8.480;2023-04-23T10:12:44;16.70;99.90
41630;DHT22;27322;49.488;8.480;2023-04-23T10:15:11;16.80;99.90
41630;DHT22;27322;49.488;8.480;2023-04-23T10:17:38;16.70;99.90
41630;DHT22;27322;49.488;8.480;2023-04-23T10:20:06;16.70;99.90
41630;DHT22;27322;49.488;8.480;2023-04-23T10:22:33;16.70;99.90
41630;DHT22;27322;49.488;8.480;2023-04-23T10:25:03;16.80;99.90
41630;DHT22;27322;49.488;8.480;2023-04-23T10:27:31;16.80;99.90
41630;DHT22;27322;49.488;8.480;2023-04-23T10:29:57;16.80;99.90
41630;DHT22;27322;49.488;8.480;2023-04-23T10:32:23;16.90;99.90
41630;DHT22;27322;49.488;8.480;2023-04-23T10:34:49;16.90;99.90
41630;DHT22;27322;49.488;8.480;2023-04-23T10:37:16;16.90;99.90
41630;DHT22;27322;49.488;8.480;2023-04-23T10:39:46;16.90;99.90
41630;DHT22;27322;49.488;8.480;2023-04-23T10:42:15;16.90;99.90
41630;DHT22;27322;49.488;8.480;2023-04-23T10:44:42;16.90;99.90
41630;DHT22;27322;49.488;8.480;2023-04-23T10:47:13;16.90;99.90
41630;DHT22;27322;49.488;8.480;2023-04-23T10:49:39;16.90;99.90
41630;DHT22;27322;49.488;8.480;2023-04-23T10:52:11;17.00;99.90
41630;DHT22;27322;49.488;8.480;2023-04-23T10:54:40;16.90;99.90
41630;DHT22;27322;49.488;8.480;2023-04-23T10:57:07;16.90;99.90
41630;DHT22;27322;49.488;8.480;2023-04-23T10:59:34;16.90;99.90
41630;DHT22;27322;49.488;8.480;2023-04-23T11:02:11;17.00;99.90
41630;DHT22;27322;49.488;8.480;2023-04-23T11:05:07;17.00;99.90
41630;DHT22;27322;49.488;8.480;2023-04-23T11:07:33;17.10;99.90
41630;DHT22;27322;49.488;8.480;2023-04-23T11:10:01;17.20;99.90
41630;DHT22;27322;49.488;8.480;2023-04-23T11:12:35;17.20;99.90
41630;DHT22;27322;49.488;8.480;2023-04-23T11:15:12;17.20;99.90
41630;DHT22;27322;49.488;8.480;2023-04-23T11:20:06;17.30;99.90
41630;DHT22;27322;49.488;8.480;2023-04-23T11:22:51;17.30;99.90
41630;DHT22;27322;49.488;8.480;2023-04-23T11:25:21;17.30;99.90
41630;DHT22;27322;49.488;8.480;2023-04-23T11:27:49;17.30;99.90
41630;DHT22;27322;49.488;8.480;2023-04-23T11:30:15;17.30;99.90
41630;DHT22;27322;49.488;8.480;2023-04-23T11:32:46;17.30;99.90
41630;DHT22;27322;49.488;8.480;2023-04-23T11:35:14;17.30;99.90
41630;DHT22;27322;49.488;8.480;2023-04-23T11:37:41;17.20;99.90
41630;DHT22;27322;49.488;8.480;2023-04-23T11:40:09;17.30;99.90
41630;DHT22;27322;49.488;8.480;2023-04-23T11:43:01;17.40;99.90
41630;DHT22;27322;49.488;8.480;2023-04-23T11:45:28;17.50;99.90
41630;DHT22;27322;49.488;8.480;2023-04-23T11:47:55;17.50;99.90
41630;DHT22;27322;49.488;8.480;2023-04-23T11:50:28;17.50;99.90
41630;DHT22;27322;49.488;8.480;2023-04-23T11:53:08;17.60;99.90
41630;DHT22;27322;49.488;8.480;2023-04-23T11:55:34;17.60;99.90
41630;DHT22;27322;49.488;8.480;2023-04-23T11:58:00;17.60;99.90
41630;DHT22;27322;49.488;8.480;2023-04-23T12:00:26;17.60;99.90
41630;DHT22;27322;49.488;8.480;2023-04-23T12:02:53;17.60;99.90
41630;DHT22;27322;49.488;8.480;2023-04-23T12:05:26;17.70;99.90
41630;DHT22;27322;49.488;8.480;2023-04-23T12:07:52;17.70;99.90
41630;DHT22;27322;49.488;8.480;2023-04-23T12:10:19;17.70;99.90
41630;DHT22;27322;49.488;8.480;2023-04-23T12:12:51;17.70;99.90
41630;DHT22;27322;49.488;8.480;2023-04-23T12:15:17;17.70;99.90
41630;DHT22;27322;49.488;8.480;2023-04-23T12:17:50;17.70;99.90
41630;DHT22;27322;49.488;8.480;2023-04-23T12:20:20;17.70;99.90
41630;DHT22;27322;49.488;8.480;2023-04-23T12:22:47;17.70;99.90
41630;DHT22;27322;49.488;8.480;2023-04-23T12:25:13;17.70;99.90
41630;DHT22;27322;49.488;8.480;2023-04-23T12:27:40;17.70;99.90
41630;DHT22;27322;49.488;8.480;2023-04-23T12:30:07;17.70;99.90
41630;DHT22;27322;49.488;8.480;2023-04-23T12:32:34;17.80;99.90
41630;DHT22;27322;49.488;8.480;2023-04-23T12:34:59;17.80;98.50
41630;DHT22;27322;49.488;8.480;2023-04-23T12:37:29;17.80;97.90
41630;DHT22;27322;49.488;8.480;2023-04-23T12:39:55;17.80;99.30
41630;DHT22;27322;49.488;8.480;2023-04-23T12:42:24;17.90;97.90
41630;DHT22;27322;49.488;8.480;2023-04-23T12:44:50;17.90;98.30
41630;DHT22;27322;49.488;8.480;2023-04-23T12:47:16;17.90;97.10
41630;DHT22;27322;49.488;8.480;2023-04-23T12:49:45;17.90;97.30
41630;DHT22;27322;49.488;8.480;2023-04-23T12:52:13;17.90;97.70
41630;DHT22;27322;49.488;8.480;2023-04-23T12:54:40;18.00;99.20
41630;DHT22;27322;49.488;8.480;2023-04-23T12:57:09;18.00;98.20
41630;DHT22;27322;49.488;8.480;2023-04-23T12:59:35;18.00;98.20
41630;DHT22;27322;49.488;8.480;2023-04-23T13:02:01;18.00;98.10
41630;DHT22;27322;49.488;8.480;2023-04-23T13:04:28;18.00;97.70
41630;DHT22;27322;49.488;8.480;2023-04-23T13:06:54;18.10;96.50
41630;DHT22;27322;49.488;8.480;2023-04-23T13:09:20;18.10;96.90
41630;DHT22;27322;49.488;8.480;2023-04-23T13:11:46;18.10;97.30
41630;DHT22;27322;49.488;8.480;2023-04-23T13:14:14;18.20;95.10
41630;DHT22;27322;49.488;8.480;2023-04-23T13:16:43;18.20;94.60
41630;DHT22;27322;49.488;8.480;2023-04-23T13:19:09;18.10;94.80
41630;DHT22;27322;49.488;8.480;2023-04-23T13:21:35;18.20;95.60
41630;DHT22;27322;49.488;8.480;2023-04-23T13:24:00;18.20;95.40
41630;DHT22;27322;49.488;8.480;2023-04-23T13:26:27;18.20;95.70
41630;DHT22;27322;49.488;8.480;2023-04-23T13:28:57;18.20;95.20
41630;DHT22;27322;49.488;8.480;2023-04-23T13:31:23;18.20;94.70
41630;DHT22;27322;49.488;8.480;2023-04-23T13:33:50;18.20;94.20
41630;DHT22;27322;49.488;8.480;2023-04-23T13:36:15;18.30;94.30
41630;DHT22;27322;49.488;8.480;2023-04-23T13:38:41;18.30;93.10
41630;DHT22;27322;49.488;8.480;2023-04-23T13:41:06;18.30;93.30
41630;DHT22;27322;49.488;8.480;2023-04-23T13:43:32;18.30;93.60
41630;DHT22;27322;49.488;8.480;2023-04-23T13:45:58;18.30;93.10
41630;DHT22;27322;49.488;8.480;2023-04-23T13:48:25;18.30;93.50
41630;DHT22;27322;49.488;8.480;2023-04-23T13:50:59;18.30;93.30
41630;DHT22;27322;49.488;8.480;2023-04-23T13:53:25;18.30;93.40
41630;DHT22;27322;49.488;8.480;2023-04-23T13:55:52;18.40;93.70
41630;DHT22;27322;49.488;8.480;2023-04-23T13:58:18;18.40;93.80
41630;DHT22;27322;49.488;8.480;2023-04-23T14:00:43;18.40;94.60
41630;DHT22;27322;49.488;8.480;2023-04-23T14:03:09;18.40;94.60
41630;DHT22;27322;49.488;8.480;2023-04-23T14:05:35;18.50;94.40
41630;DHT22;27322;49.488;8.480;2023-04-23T14:08:01;18.50;93.60
41630;DHT22;27322;49.488;8.480;2023-04-23T14:10:27;18.40;93.40
41630;DHT22;27322;49.488;8.480;2023-04-23T14:12:52;18.40;93.60
41630;DHT22;27322;49.488;8.480;2023-04-23T14:15:29;18.40;94.10
41630;DHT22;27322;49.488;8.480;2023-04-23T14:17:54;18.40;94.40
41630;DHT22;27322;49.488;8.480;2023-04-23T14:20:20;18.50;94.00
41630;DHT22;27322;49.488;8.480;2023-04-23T14:23:00;18.50;93.90
41630;DHT22;27322;49.488;8.480;2023-04-23T14:25:34;18.40;93.00
41630;DHT22;27322;49.488;8.480;2023-04-23T14:28:02;18.50;93.30
41630;DHT22;27322;49.488;8.480;2023-04-23T14:30:33;18.40;93.90
41630;DHT22;27322;49.488;8.480;2023-04-23T14:32:59;18.40;93.50
41630;DHT22;27322;49.488;8.480;2023-04-23T14:35:25;18.40;93.50
41630;DHT22;27322;49.488;8.480;2023-04-23T14:37:50;18.40;92.70
41630;DHT22;27322;49.488;8.480;2023-04-23T14:40:16;18.40;92.90
41630;DHT22;27322;49.488;8.480;2023-04-23T14:42:53;18.40;93.90
41630;DHT22;27322;49.488;8.480;2023-04-23T14:45:18;18.40;94.90
41630;DHT22;27322;49.488;8.480;2023-04-23T14:47:45;18.40;94.60
41630;DHT22;27322;49.488;8.480;2023-04-23T14:50:15;18.40;95.10
41630;DHT22;27322;49.488;8.480;2023-04-23T14:52:41;18.40;95.50
41630;DHT22;27322;49.488;8.480;2023-04-23T14:55:09;18.30;95.60
41630;DHT22;27322;49.488;8.480;2023-04-23T14:57:35;18.30;95.30
41630;DHT22;27322;49.488;8.480;2023-04-23T15:00:01;18.30;95.10
41630;DHT22;27322;49.488;8.480;2023-04-23T15:02:26;18.30;94.80
41630;DHT22;27322;49.488;8.480;2023-04-23T15:04:53;18.30;95.30
41630;DHT22;27322;49.488;8.480;2023-04-23T15:07:19;18.30;94.80
41630;DHT22;27322;49.488;8.480;2023-04-23T15:09:45;18.30;94.80
41630;DHT22;27322;49.488;8.480;2023-04-23T15:14:56;18.30;96.20
41630;DHT22;27322;49.488;8.480;2023-04-23T15:17:22;18.30;95.30
41630;DHT22;27322;49.488;8.480;2023-04-23T15:19:47;18.30;95.60
41630;DHT22;27322;49.488;8.480;2023-04-23T15:22:13;18.30;95.40
41630;DHT22;27322;49.488;8.480;2023-04-23T15:24:38;18.30;95.40
41630;DHT22;27322;49.488;8.480;2023-04-23T15:27:04;18.30;95.60
41630;DHT22;27322;49.488;8.480;2023-04-23T15:29:32;18.30;95.80
41630;DHT22;27322;49.488;8.480;2023-04-23T15:31:58;18.30;96.40
41630;DHT22;27322;49.488;8.480;2023-04-23T15:34:24;18.20;96.50
41630;DHT22;27322;49.488;8.480;2023-04-23T15:36:49;18.30;96.40